Terminal Aerodrome Forecast
Issued by NWS

Home | Current Version | Previous Version | Text Only | Print | Product List | Glossary On
Versions: 1 2 3 4 5 6 7 8 9 10 11 12 13 14 15 16 17 18 19 20 21
000
FTUS45 KABQ 282300
TAFGUP
TAF
KGUP 282320Z 0100/0124 23018G27KT P6SM VCSH BKN035
      TEMPO 0100/0104 3SM -RA BR OVC018
     FM010400 23010G18KT P6SM -SHRA BKN025 OVC040
     FM010800 21010KT 1/2SM -SN FG OVC006
     FM011900 22012G22KT P6SM VCSH OVC020=

USA.gov is the U.S. government's official web portal to all federal, state and local government web resources and services.